Rm Thomas — FNMP — position and weather

sailwx.info

Track history (hours):
 
Tides and Currents Weather Stations Pressure Air Temp Water Temp Dewpoint Dewpoint Depression Visibility Wind Speed Wind Dir Waves Ship Positions

Rm Thomas

Last reported at 2016-Aug-25 08:16 UTC. Time now 2016-Aug-26 03:15 UTC.
Position N 44°53' W 000°32'.

Length 25 m; draft 4 m.

Type: Tug. MMSI: 228278700.

Date/timePositionNaut miles runAvg speedWind from/ knotsBaromVisibWave heightAir tempDewpointWater temp
2016-Aug-25 08:16N 44°53' W 000°32'0 0.0
2016-Aug-25 07:33N 44°53' W 000°32'0 0.0
2016-Aug-25 04:33N 44°53' W 000°32'7 1.2
2016-Aug-24 22:24N 45°00' W 000°34'0 0.0
2016-Aug-24 09:32N 45°00' W 000°34'0 0.5
2016-Aug-24 08:32N 45°01' W 000°34'6 5.1
2016-Aug-24 07:20N 44°55' W 000°33'1 1.9
2016-Aug-24 06:34N 44°53' W 000°32'0 0.0
2016-Aug-24 04:33N 44°53' W 000°32'0 0.0
2016-Aug-24 02:27N 44°53' W 000°32'1 0.9
2016-Aug-24 01:19N 44°54' W 000°32'5 6.2
2016-Aug-24 00:33N 44°59' W 000°32'2 1.8
2016-Aug-23 23:33N 45°00' W 000°34'0 0.3
2016-Aug-23 22:33N 45°00' W 000°34'5 4.8
2016-Aug-23 21:33N 44°55' W 000°33'2 0.2
2016-Aug-23 07:33N 44°53' W 000°32'7 2.4
2016-Aug-23 04:33N 45°00' W 000°34'0 0.0
2016-Aug-23 03:30N 45°00' W 000°34'0 0.3
2016-Aug-23 02:11N 45°00' W 000°34'0 0.0
2016-Aug-23 01:33N 45°00' W 000°34'0 0.0
2016-Aug-22 07:25N 45°00' W 000°34'2 2.4
2016-Aug-22 06:33N 44°58' W 000°32'5 5.1
2016-Aug-22 05:33N 44°53' W 000°32'0 0.0
2016-Aug-22 01:33N 44°53' W 000°32'0 0.0
2016-Aug-22 00:33N 44°53' W 000°32'  
2016-Aug-16 21:29N 44°53' W 000°32'0 0.0
2016-Aug-16 20:31N 44°53' W 000°32'0 0.0
2016-Aug-16 19:31N 44°53' W 000°32'0 0.0
2016-Aug-16 18:33N 44°53' W 000°32'0 0.0
2016-Aug-16 07:33N 44°53' W 000°32'0 0.0
2016-Aug-15 21:29N 44°53' W 000°32'0 0.0
2016-Aug-15 08:32N 44°53' W 000°32'  
Track history (hours):
 
Tides and Currents Weather Stations Pressure Air Temp Water Temp Dewpoint Dewpoint Depression Visibility Wind Speed Wind Dir Waves Ship Positions

Rm Thomas

Last reported at 2016-Aug-25 08:16 UTC. Time now 2016-Aug-26 03:15 UTC.
Position N 44°53' W 000°32'.

Length 25 m; draft 4 m.

Type: Tug. MMSI: 228278700.

Date/timePositionNaut miles runAvg speedWind from/ knotsBaromVisibWave heightAir tempDewpointWater temp
2016-Aug-25 08:16N 44°53' W 000°32'0 0.0
2016-Aug-25 07:33N 44°53' W 000°32'0 0.0
2016-Aug-25 04:33N 44°53' W 000°32'7 1.2
2016-Aug-24 22:24N 45°00' W 000°34'0 0.0
2016-Aug-24 09:32N 45°00' W 000°34'0 0.5
2016-Aug-24 08:32N 45°01' W 000°34'6 5.1
2016-Aug-24 07:20N 44°55' W 000°33'1 1.9
2016-Aug-24 06:34N 44°53' W 000°32'0 0.0
2016-Aug-24 04:33N 44°53' W 000°32'0 0.0
2016-Aug-24 02:27N 44°53' W 000°32'1 0.9
2016-Aug-24 01:19N 44°54' W 000°32'5 6.2
2016-Aug-24 00:33N 44°59' W 000°32'2 1.8
2016-Aug-23 23:33N 45°00' W 000°34'0 0.3
2016-Aug-23 22:33N 45°00' W 000°34'5 4.8
2016-Aug-23 21:33N 44°55' W 000°33'2 0.2
2016-Aug-23 07:33N 44°53' W 000°32'7 2.4
2016-Aug-23 04:33N 45°00' W 000°34'0 0.0
2016-Aug-23 03:30N 45°00' W 000°34'0 0.3
2016-Aug-23 02:11N 45°00' W 000°34'0 0.0
2016-Aug-23 01:33N 45°00' W 000°34'0 0.0
2016-Aug-22 07:25N 45°00' W 000°34'2 2.4
2016-Aug-22 06:33N 44°58' W 000°32'5 5.1
2016-Aug-22 05:33N 44°53' W 000°32'0 0.0
2016-Aug-22 01:33N 44°53' W 000°32'0 0.0
2016-Aug-22 00:33N 44°53' W 000°32'  
2016-Aug-16 21:29N 44°53' W 000°32'0 0.0
2016-Aug-16 20:31N 44°53' W 000°32'0 0.0
2016-Aug-16 19:31N 44°53' W 000°32'0 0.0
2016-Aug-16 18:33N 44°53' W 000°32'0 0.0
2016-Aug-16 07:33N 44°53' W 000°32'0 0.0
2016-Aug-15 21:29N 44°53' W 000°32'0 0.0
2016-Aug-15 08:32N 44°53' W 000°32'  

Dump ship's entire track history